PWSweather.com
Personal Weather Stations
Station Observations
NBW76
Silver Creek, North Bend, WA 98065

Silver CreekNorth Bend, WA 98065

Lat: 47.4993612, Lon: -121.7783245

Elevation: 443

Station Type: Davisd VP2 + Solar + UV + Webcam

Latest ConditionsUpdated 7:50:01 PM PST Sunday, Feb 19, 2017
Currently Today's Max Today's Min Today's Average
Temperature 41.8°F5.4°C 47.9°F8.8°C 38.6°F3.7°C 41.8°F5.4°C
Dew Point 39.6°F4.2°C 40.8°F4.9°C 37.3°F2.9°C 39.2°F4.0°C
Winds 5.8 mph SE9.3 kmh SE 9.2 mph SE14.8 kmh SE - 3.2 mph 5.1 kmh
Wind Gusts 10.4 mph16.7 kmh 15.0 mph24.1 kmh - -
Humidity 92% 95% 71% 91%
Pressure 29.56 in1001.0 mb 29.56 in1001.0 mb 29.36 in994.2 mb -
Precipitation - 0.32 in8.1 mm - -
Hour Temp Dew Point Humidity Winds Wind Gusts Pressure Precip Precip Rate Daily Precip Total
07:50 PM 41.8°F5.4°C 39.6°F4.2°C 92% 5.8 mph SE9.3 kmh SE 10.4 mph16.7 kmh 29.56 in1001.0 mb - 0.01 in0.3 mm 0.32 in8.1 mm
07:40 PM 42.1°F5.6°C 39.7°F4.3°C 91% 4.6 mph SE7.4 kmh SE 5.8 mph9.3 kmh 29.56 in1001.0 mb - 0.00 in0.0 mm 0.31 in7.9 mm
07:30 PM 42.1°F5.6°C 39.7°F4.3°C 91% 3.5 mph ESE5.6 kmh ESE 5.8 mph9.3 kmh 29.56 in1001.0 mb - 0.00 in0.0 mm 0.31 in7.9 mm
07:20 PM 42.3°F5.7°C 39.6°F4.2°C 90% 3.5 mph SSE5.6 kmh SSE 4.6 mph7.4 kmh 29.55 in1000.7 mb - 0.01 in0.3 mm 0.31 in7.9 mm
07:10 PM 42.5°F5.8°C 39.8°F4.3°C 90% 1.2 mph ESE1.9 kmh ESE 4.6 mph7.4 kmh 29.55 in1000.7 mb - 0.00 in0.0 mm 0.30 in7.6 mm
07:00 PM 42.5°F5.8°C 39.8°F4.3°C 90% 3.5 mph ESE5.6 kmh ESE 8.1 mph13.0 kmh 29.55 in1000.7 mb - 0.00 in0.0 mm 0.30 in7.6 mm
06:50 PM 42.9°F6.1°C 39.6°F4.2°C 88% 8.1 mph ESE13.0 kmh ESE 11.5 mph18.5 kmh 29.55 in1000.7 mb - 0.00 in0.0 mm 0.30 in7.6 mm
06:40 PM 43.2°F6.2°C 39.9°F4.4°C 88% 6.9 mph SE11.1 kmh SE 10.4 mph16.7 kmh 29.54 in1000.3 mb - 0.01 in0.3 mm 0.30 in7.6 mm
06:30 PM 42.9°F6.1°C 40.2°F4.6°C 90% 9.2 mph SE14.8 kmh SE 15.0 mph24.1 kmh 29.53 in1000.0 mb - 0.00 in0.0 mm 0.29 in7.4 mm
06:20 PM 42.4°F5.8°C 40.3°F4.6°C 92% 6.9 mph ESE11.1 kmh ESE 10.4 mph16.7 kmh 29.53 in1000.0 mb - 0.00 in0.0 mm 0.29 in7.4 mm
06:10 PM 42.3°F5.7°C 40.1°F4.5°C 92% 6.9 mph SE11.1 kmh SE 11.5 mph18.5 kmh 29.52 in999.7 mb - 0.00 in0.0 mm 0.29 in7.4 mm
06:00 PM 42.4°F5.8°C 40.0°F4.4°C 91% 4.6 mph SE7.4 kmh SE 6.9 mph11.1 kmh 29.52 in999.7 mb - 0.00 in0.0 mm 0.29 in7.4 mm
05:50 PM 42.3°F5.7°C 39.9°F4.4°C 91% 4.6 mph ESE7.4 kmh ESE 8.1 mph13.0 kmh 29.52 in999.7 mb - 0.00 in0.0 mm 0.29 in7.4 mm
05:40 PM 42.5°F5.8°C 40.1°F4.5°C 91% 2.3 mph ESE3.7 kmh ESE 3.5 mph5.6 kmh 29.52 in999.7 mb - 0.01 in0.3 mm 0.29 in7.4 mm
05:30 PM 42.5°F5.8°C 40.1°F4.5°C 91% 5.8 mph ESE9.3 kmh ESE 11.5 mph18.5 kmh 29.52 in999.7 mb - 0.00 in0.0 mm 0.28 in7.1 mm
05:20 PM 42.6°F5.9°C 40.2°F4.6°C 91% 1.2 mph SSE1.9 kmh SSE 3.5 mph5.6 kmh 29.51 in999.3 mb - 0.00 in0.0 mm 0.28 in7.1 mm
05:10 PM 42.7°F5.9°C 40.3°F4.6°C 91% 3.5 mph E5.6 kmh E 9.2 mph14.8 kmh 29.51 in999.3 mb - 0.00 in0.0 mm 0.28 in7.1 mm
05:00 PM 42.6°F5.9°C 40.1°F4.5°C 91% 6.9 mph ESE11.1 kmh ESE 9.2 mph14.8 kmh 29.51 in999.3 mb - 0.00 in0.0 mm 0.28 in7.1 mm
04:50 PM 42.5°F5.8°C 39.8°F4.3°C 90% 3.5 mph SE5.6 kmh SE 3.5 mph5.6 kmh 29.51 in999.3 mb - 0.01 in0.3 mm 0.28 in7.1 mm
04:40 PM 42.8°F6.0°C 40.1°F4.5°C 90% 6.9 mph ESE11.1 kmh ESE 11.5 mph18.5 kmh 29.50 in999.0 mb - 0.00 in0.0 mm 0.27 in6.9 mm
04:30 PM 42.8°F6.0°C 40.1°F4.5°C 90% 5.8 mph SE9.3 kmh SE 9.2 mph14.8 kmh 29.49 in998.6 mb - 0.00 in0.0 mm 0.27 in6.9 mm
04:20 PM 42.9°F6.1°C 40.4°F4.7°C 91% 3.5 mph ESE5.6 kmh ESE 5.8 mph9.3 kmh 29.48 in998.3 mb - 0.00 in0.0 mm 0.27 in6.9 mm
04:10 PM 42.7°F5.9°C 40.5°F4.7°C 92% 6.9 mph SE11.1 kmh SE 11.5 mph18.5 kmh 29.49 in998.6 mb - 0.00 in0.0 mm 0.27 in6.9 mm
04:00 PM 42.5°F5.8°C 40.6°F4.8°C 93% 8.1 mph SE13.0 kmh SE 10.4 mph16.7 kmh 29.48 in998.3 mb - 0.00 in0.0 mm 0.27 in6.9 mm
03:50 PM 42.4°F5.8°C 40.5°F4.7°C 93% 6.9 mph SE11.1 kmh SE 6.9 mph11.1 kmh 29.48 in998.3 mb - 0.00 in0.0 mm 0.27 in6.9 mm
03:40 PM 42.2°F5.7°C 40.1°F4.5°C 92% 5.8 mph SE9.3 kmh SE 9.2 mph14.8 kmh 29.48 in998.3 mb - 0.01 in0.3 mm 0.27 in6.9 mm
03:30 PM 42.3°F5.7°C 40.1°F4.5°C 92% 4.6 mph ESE7.4 kmh ESE 5.8 mph9.3 kmh 29.50 in999.0 mb - 0.01 in0.3 mm 0.26 in6.6 mm
03:20 PM 42.4°F5.8°C 40.0°F4.4°C 91% 3.5 mph ESE5.6 kmh ESE 5.8 mph9.3 kmh 29.50 in999.0 mb - 0.01 in0.3 mm 0.26 in6.6 mm
03:10 PM 42.3°F5.7°C 39.9°F4.4°C 91% 6.9 mph ESE11.1 kmh ESE 10.4 mph16.7 kmh 29.49 in998.6 mb - 0.01 in0.3 mm 0.25 in6.4 mm
03:00 PM 42.2°F5.7°C 40.0°F4.4°C 92% 3.5 mph SE5.6 kmh SE 3.5 mph5.6 kmh 29.48 in998.3 mb - 0.00 in0.0 mm 0.24 in6.1 mm
02:50 PM 42.1°F5.6°C 39.9°F4.4°C 92% 4.6 mph ESE7.4 kmh ESE 6.9 mph11.1 kmh 29.48 in998.3 mb - 0.00 in0.0 mm 0.24 in6.1 mm
02:40 PM 42.0°F5.6°C 40.1°F4.5°C 93% 3.5 mph SE5.6 kmh SE 9.2 mph14.8 kmh 29.48 in998.3 mb - 0.00 in0.0 mm 0.24 in6.1 mm
02:30 PM 41.8°F5.4°C 39.9°F4.4°C 93% 3.5 mph SE5.6 kmh SE 5.8 mph9.3 kmh 29.48 in998.3 mb - 0.00 in0.0 mm 0.24 in6.1 mm
02:20 PM 41.7°F5.4°C 39.8°F4.3°C 93% 2.3 mph SSE3.7 kmh SSE 3.5 mph5.6 kmh 29.48 in998.3 mb - 0.01 in0.3 mm 0.24 in6.1 mm
02:10 PM 41.8°F5.4°C 39.9°F4.4°C 93% 4.6 mph SE7.4 kmh SE 6.9 mph11.1 kmh 29.48 in998.3 mb - 0.01 in0.3 mm 0.24 in6.1 mm
02:00 PM 42.1°F5.6°C 40.5°F4.7°C 94% 2.3 mph S3.7 kmh S 3.5 mph5.6 kmh 29.48 in998.3 mb - 0.00 in0.0 mm 0.23 in5.8 mm
01:50 PM 41.9°F5.5°C 40.0°F4.4°C 93% 3.5 mph SE5.6 kmh SE 4.6 mph7.4 kmh 29.49 in998.6 mb - 0.02 in0.5 mm 0.23 in5.8 mm
01:40 PM 41.8°F5.4°C 39.9°F4.4°C 93% 2.3 mph ESE3.7 kmh ESE 4.6 mph7.4 kmh 29.49 in998.6 mb - 0.03 in0.8 mm 0.22 in5.6 mm
01:30 PM 41.8°F5.4°C 39.6°F4.2°C 92% 4.6 mph ESE7.4 kmh ESE 8.1 mph13.0 kmh 29.49 in998.6 mb - 0.02 in0.5 mm 0.20 in5.1 mm
01:20 PM 42.1°F5.6°C 39.9°F4.4°C 92% 3.5 mph SE5.6 kmh SE 4.6 mph7.4 kmh 29.49 in998.6 mb - 0.03 in0.8 mm 0.18 in4.6 mm
01:10 PM 42.9°F6.1°C 40.5°F4.7°C 91% 4.6 mph E7.4 kmh E 9.2 mph14.8 kmh 29.49 in998.6 mb - 0.02 in0.5 mm 0.15 in3.8 mm
01:00 PM 43.3°F6.3°C 40.8°F4.9°C 91% 2.3 mph E3.7 kmh E 3.5 mph5.6 kmh 29.48 in998.3 mb - 0.01 in0.3 mm 0.13 in3.3 mm
12:50 PM 43.4°F6.3°C 40.7°F4.8°C 90% 2.3 mph ESE3.7 kmh ESE 3.5 mph5.6 kmh 29.48 in998.3 mb - 0.01 in0.3 mm 0.12 in3.0 mm
12:40 PM 43.2°F6.2°C 40.2°F4.6°C 89% 2.3 mph SE3.7 kmh SE 3.5 mph5.6 kmh 29.47 in998.0 mb - 0.01 in0.3 mm 0.11 in2.8 mm
12:30 PM 43.5°F6.4°C 39.9°F4.4°C 87% 3.5 mph SE5.6 kmh SE 4.6 mph7.4 kmh 29.47 in998.0 mb - 0.01 in0.3 mm 0.10 in2.5 mm
12:20 PM 44.0°F6.7°C 39.8°F4.3°C 85% 3.5 mph ESE5.6 kmh ESE 5.8 mph9.3 kmh 29.47 in998.0 mb - 0.01 in0.3 mm 0.09 in2.3 mm
12:10 PM 44.7°F7.1°C 39.9°F4.4°C 83% 8.1 mph ESE13.0 kmh ESE 12.7 mph20.4 kmh 29.47 in998.0 mb - 0.00 in0.0 mm 0.08 in2.0 mm
12:00 PM 45.5°F7.5°C 40.0°F4.4°C 81% 4.6 mph SE7.4 kmh SE 5.8 mph9.3 kmh 29.46 in997.6 mb - 0.00 in0.0 mm 0.08 in2.0 mm
11:50 AM 46.5°F8.1°C 39.7°F4.3°C 77% 4.6 mph ESE7.4 kmh ESE 9.2 mph14.8 kmh 29.46 in997.6 mb - 0.01 in0.3 mm 0.08 in2.0 mm
11:40 AM 47.3°F8.5°C 39.1°F3.9°C 73% 3.5 mph ESE5.6 kmh ESE 5.8 mph9.3 kmh 29.45 in997.3 mb - 0.00 in0.0 mm 0.07 in1.8 mm
11:30 AM 47.3°F8.5°C 38.7°F3.7°C 72% 6.9 mph ESE11.1 kmh ESE 6.9 mph11.1 kmh 29.45 in997.3 mb - 0.00 in0.0 mm 0.07 in1.8 mm
11:20 AM 47.6°F8.7°C 38.7°F3.7°C 71% 3.5 mph ESE5.6 kmh ESE 4.6 mph7.4 kmh 29.45 in997.3 mb - 0.00 in0.0 mm 0.07 in1.8 mm
11:10 AM 47.8°F8.8°C 39.2°F4.0°C 72% 8.1 mph ESE13.0 kmh ESE 11.5 mph18.5 kmh 29.44 in997.0 mb - 0.00 in0.0 mm 0.07 in1.8 mm
11:00 AM 47.8°F8.8°C 40.3°F4.6°C 75% 2.3 mph N3.7 kmh N 3.5 mph5.6 kmh 29.43 in996.6 mb - 0.00 in0.0 mm 0.07 in1.8 mm
10:50 AM 47.9°F8.8°C 40.7°F4.8°C 76% 2.3 mph E3.7 kmh E 3.5 mph5.6 kmh 29.43 in996.6 mb - 0.00 in0.0 mm 0.07 in1.8 mm
10:40 AM 46.6°F8.1°C 39.8°F4.3°C 77% 1.2 mph ESE1.9 kmh ESE 3.5 mph5.6 kmh 29.43 in996.6 mb - 0.00 in0.0 mm 0.07 in1.8 mm
10:30 AM 46.2°F7.9°C 39.4°F4.1°C 77% 8.1 mph SE13.0 kmh SE 9.2 mph14.8 kmh 29.43 in996.6 mb - 0.00 in0.0 mm 0.07 in1.8 mm
10:20 AM 45.4°F7.4°C 39.5°F4.2°C 80% 4.6 mph ESE7.4 kmh ESE 5.8 mph9.3 kmh 29.43 in996.6 mb - 0.00 in0.0 mm 0.07 in1.8 mm
10:10 AM 45.6°F7.6°C 39.8°F4.3°C 80% 6.9 mph SE11.1 kmh SE 13.8 mph22.2 kmh 29.43 in996.6 mb - 0.00 in0.0 mm 0.07 in1.8 mm
10:00 AM 45.0°F7.2°C 39.6°F4.2°C 81% 6.9 mph ESE11.1 kmh ESE 11.5 mph18.5 kmh 29.42 in996.3 mb - 0.00 in0.0 mm 0.07 in1.8 mm
09:50 AM 44.6°F7.0°C 40.1°F4.5°C 84% 5.8 mph ESE9.3 kmh ESE 9.2 mph14.8 kmh 29.43 in996.6 mb - 0.00 in0.0 mm 0.07 in1.8 mm
09:40 AM 43.8°F6.6°C 39.9°F4.4°C 86% 6.9 mph SE11.1 kmh SE 9.2 mph14.8 kmh 29.42 in996.3 mb - 0.00 in0.0 mm 0.07 in1.8 mm
09:30 AM 43.1°F6.2°C 39.5°F4.2°C 87% 3.5 mph SE5.6 kmh SE 5.8 mph9.3 kmh 29.42 in996.3 mb - 0.00 in0.0 mm 0.07 in1.8 mm
09:20 AM 42.6°F5.9°C 39.3°F4.1°C 88% 3.5 mph SE5.6 kmh SE 3.5 mph5.6 kmh 29.42 in996.3 mb - 0.00 in0.0 mm 0.07 in1.8 mm
09:10 AM 42.2°F5.7°C 39.2°F4.0°C 89% 5.8 mph SE9.3 kmh SE 5.8 mph9.3 kmh 29.42 in996.3 mb - 0.00 in0.0 mm 0.07 in1.8 mm
09:00 AM 41.8°F5.4°C 39.1°F3.9°C 90% 4.6 mph ESE7.4 kmh ESE 8.1 mph13.0 kmh 29.42 in996.3 mb - 0.00 in0.0 mm 0.07 in1.8 mm
08:50 AM 41.6°F5.3°C 38.9°F3.8°C 90% 3.5 mph ESE5.6 kmh ESE 6.9 mph11.1 kmh 29.42 in996.3 mb - 0.00 in0.0 mm 0.07 in1.8 mm
08:40 AM 41.4°F5.2°C 38.6°F3.7°C 90% 4.6 mph ESE7.4 kmh ESE 9.2 mph14.8 kmh 29.42 in996.3 mb - 0.00 in0.0 mm 0.07 in1.8 mm
08:30 AM 41.3°F5.2°C 38.9°F3.8°C 91% 3.5 mph ESE5.6 kmh ESE 3.5 mph5.6 kmh 29.42 in996.3 mb - 0.00 in0.0 mm 0.07 in1.8 mm
08:20 AM 41.4°F5.2°C 39.3°F4.1°C 92% 4.6 mph SE7.4 kmh SE 10.4 mph16.7 kmh 29.41 in995.9 mb - 0.00 in0.0 mm 0.07 in1.8 mm
08:10 AM 40.6°F4.8°C 38.7°F3.7°C 93% 5.8 mph SSE9.3 kmh SSE 10.4 mph16.7 kmh 29.41 in995.9 mb - 0.00 in0.0 mm 0.07 in1.8 mm
08:00 AM 40.3°F4.6°C 38.5°F3.6°C 93% 1.2 mph E1.9 kmh E 2.3 mph3.7 kmh 29.42 in996.3 mb - 0.01 in0.3 mm 0.07 in1.8 mm
07:50 AM 40.3°F4.6°C 38.4°F3.6°C 93% 1.2 mph E1.9 kmh E 3.5 mph5.6 kmh 29.42 in996.3 mb - 0.02 in0.5 mm 0.06 in1.5 mm
07:40 AM 40.4°F4.7°C 38.5°F3.6°C 93% 3.5 mph E5.6 kmh E 4.6 mph7.4 kmh 29.41 in995.9 mb - 0.00 in0.0 mm 0.04 in1.0 mm
07:30 AM 40.2°F4.6°C 38.3°F3.5°C 93% 2.3 mph ESE3.7 kmh ESE 3.5 mph5.6 kmh 29.40 in995.6 mb - 0.00 in0.0 mm 0.04 in1.0 mm
07:20 AM 40.3°F4.6°C 38.2°F3.4°C 92% 2.3 mph SSE3.7 kmh SSE 4.6 mph7.4 kmh 29.39 in995.3 mb - 0.00 in0.0 mm 0.04 in1.0 mm
07:10 AM 40.7°F4.8°C 38.5°F3.6°C 92% 2.3 mph SE3.7 kmh SE 3.5 mph5.6 kmh 29.39 in995.3 mb - 0.01 in0.3 mm 0.04 in1.0 mm
07:00 AM 40.7°F4.8°C 38.8°F3.8°C 93% 2.3 mph E3.7 kmh E 3.5 mph5.6 kmh 29.39 in995.3 mb - 0.00 in0.0 mm 0.03 in0.8 mm
06:50 AM 40.0°F4.4°C 38.1°F3.4°C 93% 1.2 mph ESE1.9 kmh ESE 2.3 mph3.7 kmh 29.39 in995.3 mb - 0.01 in0.3 mm 0.03 in0.8 mm
06:40 AM 39.9°F4.4°C 38.0°F3.3°C 93% 1.2 mph ESE1.9 kmh ESE 3.5 mph5.6 kmh 29.38 in994.9 mb - 0.00 in0.0 mm 0.02 in0.5 mm
06:30 AM 40.2°F4.6°C 38.4°F3.6°C 93% Calm Calm 1.2 mph1.9 kmh 29.37 in994.6 mb - 0.00 in0.0 mm 0.02 in0.5 mm
06:20 AM 40.0°F4.4°C 38.4°F3.6°C 94% 4.6 mph ESE7.4 kmh ESE 9.2 mph14.8 kmh 29.36 in994.2 mb - 0.00 in0.0 mm 0.02 in0.5 mm
06:10 AM 39.4°F4.1°C 38.1°F3.4°C 95% 5.8 mph SE9.3 kmh SE 6.9 mph11.1 kmh 29.36 in994.2 mb - 0.00 in0.0 mm 0.02 in0.5 mm
06:00 AM 38.7°F3.7°C 37.4°F3.0°C 95% Calm Calm 2.3 mph3.7 kmh 29.36 in994.2 mb - 0.00 in0.0 mm 0.02 in0.5 mm
05:50 AM 38.9°F3.8°C 37.6°F3.1°C 95% 1.2 mph NE1.9 kmh NE 2.3 mph3.7 kmh 29.36 in994.2 mb - 0.00 in0.0 mm 0.02 in0.5 mm
05:40 AM 38.6°F3.7°C 37.3°F2.9°C 95% Calm Calm 1.2 mph1.9 kmh 29.36 in994.2 mb - 0.00 in0.0 mm 0.02 in0.5 mm
05:30 AM 38.8°F3.8°C 37.5°F3.1°C 95% Calm Calm 1.2 mph1.9 kmh 29.36 in994.2 mb - 0.00 in0.0 mm 0.02 in0.5 mm
05:20 AM 39.0°F3.9°C 37.7°F3.2°C 95% 4.6 mph SE7.4 kmh SE 5.8 mph9.3 kmh 29.36 in994.2 mb - 0.00 in0.0 mm 0.02 in0.5 mm
05:10 AM 38.7°F3.7°C 37.4°F3.0°C 95% 1.2 mph ESE1.9 kmh ESE 2.3 mph3.7 kmh 29.36 in994.2 mb - 0.00 in0.0 mm 0.02 in0.5 mm
05:00 AM 39.0°F3.9°C 37.7°F3.2°C 95% Calm Calm 1.2 mph1.9 kmh 29.36 in994.2 mb - 0.00 in0.0 mm 0.02 in0.5 mm
04:50 AM 39.2°F4.0°C 37.9°F3.3°C 95% 1.2 mph NE1.9 kmh NE 2.3 mph3.7 kmh 29.37 in994.6 mb - 0.00 in0.0 mm 0.02 in0.5 mm
04:40 AM 39.4°F4.1°C 38.1°F3.4°C 95% 1.2 mph NE1.9 kmh NE 1.2 mph1.9 kmh 29.37 in994.6 mb - 0.00 in0.0 mm 0.02 in0.5 mm
04:30 AM 39.5°F4.2°C 38.2°F3.4°C 95% Calm Calm 2.3 mph3.7 kmh 29.37 in994.6 mb - 0.00 in0.0 mm 0.02 in0.5 mm
04:20 AM 39.6°F4.2°C 38.3°F3.5°C 95% Calm Calm -- 29.38 in994.9 mb - 0.00 in0.0 mm 0.02 in0.5 mm
04:10 AM 39.6°F4.2°C 38.3°F3.5°C 95% Calm Calm 1.2 mph1.9 kmh 29.39 in995.3 mb - 0.00 in0.0 mm 0.02 in0.5 mm
04:00 AM 39.6°F4.2°C 38.3°F3.5°C 95% Calm Calm -- 29.39 in995.3 mb - 0.00 in0.0 mm 0.02 in0.5 mm
03:50 AM 39.6°F4.2°C 38.3°F3.5°C 95% 2.3 mph SE3.7 kmh SE 3.5 mph5.6 kmh 29.38 in994.9 mb - 0.00 in0.0 mm 0.02 in0.5 mm
03:40 AM 39.6°F4.2°C 38.3°F3.5°C 95% 1.2 mph SE1.9 kmh SE 3.5 mph5.6 kmh 29.39 in995.3 mb - 0.01 in0.3 mm 0.02 in0.5 mm
03:30 AM 39.7°F4.3°C 38.4°F3.6°C 95% Calm Calm -- 29.39 in995.3 mb - 0.00 in0.0 mm 0.01 in0.3 mm
03:20 AM 39.4°F4.1°C 38.1°F3.4°C 95% 1.2 mph ESE1.9 kmh ESE 3.5 mph5.6 kmh 29.39 in995.3 mb - 0.01 in0.3 mm 0.01 in0.3 mm
03:10 AM 39.3°F4.1°C 38.0°F3.3°C 95% Calm Calm -- 29.39 in995.3 mb - 0.00 in0.0 mm 0.00 in0.0 mm
03:00 AM 39.3°F4.1°C 38.0°F3.3°C 95% 1.2 mph ESE1.9 kmh ESE 3.5 mph5.6 kmh 29.39 in995.3 mb - 0.00 in0.0 mm 0.00 in0.0 mm
02:50 AM 39.2°F4.0°C 37.9°F3.3°C 95% Calm Calm 1.2 mph1.9 kmh 29.39 in995.3 mb - 0.00 in0.0 mm 0.00 in0.0 mm
02:40 AM 39.2°F4.0°C 37.9°F3.3°C 95% Calm Calm -- 29.40 in995.6 mb - 0.00 in0.0 mm 0.00 in0.0 mm
02:30 AM 39.2°F4.0°C 37.9°F3.3°C 95% Calm Calm -- 29.40 in995.6 mb - 0.00 in0.0 mm 0.00 in0.0 mm
02:20 AM 39.3°F4.1°C 38.0°F3.3°C 95% Calm Calm 1.2 mph1.9 kmh 29.39 in995.3 mb - 0.00 in0.0 mm 0.00 in0.0 mm
02:10 AM 39.3°F4.1°C 38.0°F3.3°C 95% 1.2 mph SSE1.9 kmh SSE 1.2 mph1.9 kmh 29.40 in995.6 mb - 0.00 in0.0 mm 0.00 in0.0 mm
02:00 AM 39.2°F4.0°C 37.9°F3.3°C 95% 2.3 mph ESE3.7 kmh ESE 3.5 mph5.6 kmh 29.40 in995.6 mb - 0.00 in0.0 mm 0.00 in0.0 mm
01:50 AM 39.3°F4.1°C 38.0°F3.3°C 95% Calm Calm -- 29.40 in995.6 mb - 0.00 in0.0 mm 0.00 in0.0 mm
01:40 AM 39.4°F4.1°C 38.1°F3.4°C 95% Calm Calm -- 29.41 in995.9 mb - 0.00 in0.0 mm 0.00 in0.0 mm
01:30 AM 39.6°F4.2°C 38.3°F3.5°C 95% Calm Calm -- 29.41 in995.9 mb - 0.00 in0.0 mm 0.00 in0.0 mm
01:20 AM 39.6°F4.2°C 38.3°F3.5°C 95% Calm Calm -- 29.41 in995.9 mb - 0.00 in0.0 mm 0.00 in0.0 mm
01:10 AM 39.7°F4.3°C 38.4°F3.6°C 95% 1.2 mph ESE1.9 kmh ESE 1.2 mph1.9 kmh 29.41 in995.9 mb - 0.00 in0.0 mm 0.00 in0.0 mm
01:00 AM 39.8°F4.3°C 38.5°F3.6°C 95% 1.2 mph ESE1.9 kmh ESE 3.5 mph5.6 kmh 29.41 in995.9 mb - 0.00 in0.0 mm 0.00 in0.0 mm
12:50 AM 39.9°F4.4°C 38.3°F3.5°C 94% Calm Calm -- 29.41 in995.9 mb - 0.00 in0.0 mm 0.00 in0.0 mm
12:40 AM 40.1°F4.5°C 38.8°F3.8°C 95% 1.2 mph SE1.9 kmh SE 2.3 mph3.7 kmh 29.41 in995.9 mb - 0.00 in0.0 mm 0.00 in0.0 mm
12:30 AM 40.4°F4.7°C 38.8°F3.8°C 94% Calm Calm 1.2 mph1.9 kmh 29.41 in995.9 mb - 0.00 in0.0 mm 0.00 in0.0 mm
12:20 AM 40.5°F4.7°C 38.9°F3.8°C 94% Calm Calm -- 29.42 in996.3 mb - 0.00 in0.0 mm 0.00 in0.0 mm
12:10 AM 40.6°F4.8°C 39.0°F3.9°C 94% Calm Calm -- 29.41 in995.9 mb - 0.00 in0.0 mm 0.00 in0.0 mm
12:00 AM 40.7°F4.8°C 39.4°F4.1°C 95% Calm Calm 1.2 mph1.9 kmh 29.41 in995.9 mb - 0.00 in0.0 mm 0.00 in0.0 mm